Main page
METAR-TAF:

METAR-TAF

Airports :

Pula, Croatia

Pula Airport

latitude: 44-54N, longitude: 013-55E, elevation: 63 m

Current weather observation

The report was made 41 minutes ago, at 02:00 UTC
Wind 1 kt from variable directions
Temperature 16°C
Humidity 59%
Pressure 1004 hPa
Visibility 10 km or more

METAR: LDPL 260200Z AUTO VRB01KT 9999 FEW001/// 16/08 Q1004 NOSIG

Time: 04:41 (02:41 UTC)

Forecast

The report was made 3 hours and 16 minutes ago, at 23:25 UTC
Forecast valid from 26 at 00 UTC to 26 at 24 UTC
Wind 8 kt from the East/Northeast
Visibility 10 km or more
no clouds below 1500 m and no cumulonimbus
Becoming
from 26 at 09 UTC to 26 at 11 UTC
Wind 10 kt from the West
Becoming
from 26 at 18 UTC to 26 at 20 UTC
Wind 2 kt from variable directions

TAF: LDPL 252325Z 2600/2624 06008KT CAVOK TX28/2613Z TN16/2603Z BECMG 2609/2611 27010KT BECMG 2618/2620 VRB02KT

Weather observations and forecasts of more than 4000 airports (METAR and TAF reports).

The available stations are represented by yellow and red dots on the map.

Hover mouse over dot to see the name of the station.

Then click to see weather observations and forecasts.

To change the map : click on the green buttons with a black cross to zoom in, on the green button with a dash to zoom out, or on the green arrows for adjacent maps.


METAR-TAF: